Time;durP1;ratioP1;P1;durP2;ratioP2;P2;SDS_P1;SDS_P2;PMS_P1;PMS_P2;Temp;Humidity;BMP_temperature;BMP_pressure;BME280_temperature;BME280_humidity;BME280_pressure;Samples;Min_cycle;Max_cycle;Signal;HPM_P1;HPM_P2
2023/09/18 00:02:12;;;;;;;6.45;3.85;;;20.60;93.40;;;;;;4934821;29;20317;-77
2023/09/18 00:04:38;;;;;;;5.38;3.47;;;20.60;93.50;;;;;;4933631;29;20031;-76
2023/09/18 00:07:05;;;;;;;5.90;3.50;;;20.60;93.40;;;;;;4934752;29;20025;-77
2023/09/18 00:09:36;;;;;;;8.27;3.92;;;20.60;93.10;;;;;;4934376;29;20209;-77
2023/09/18 00:12:09;;;;;;;6.00;3.92;;;20.50;92.80;;;;;;4934754;29;20102;-76
2023/09/18 00:14:36;;;;;;;5.95;3.30;;;20.60;93.20;;;;;;4934305;29;20031;-76
2023/09/18 00:17:05;;;;;;;5.60;3.25;;;20.60;92.70;;;;;;4944274;29;20054;-76
2023/09/18 00:19:32;;;;;;;4.70;3.00;;;20.60;93.20;;;;;;4947806;29;20019;-79
2023/09/18 00:22:00;;;;;;;4.95;2.80;;;20.50;93.10;;;;;;4962590;29;20151;-74
2023/09/18 00:24:27;;;;;;;6.03;3.35;;;20.50;93.30;;;;;;4939147;29;20027;-76
2023/09/18 00:26:52;;;;;;;8.80;4.32;;;20.50;92.90;;;;;;4934634;29;20023;-77
2023/09/18 00:29:19;;;;;;;6.85;4.28;;;20.60;92.90;;;;;;4934177;29;20023;-77
2023/09/18 05:58:22;;;;;;;6.97;2.17;;;20.50;99.90;;;;;;4401460;27;20045;-77
2023/09/18 06:01:39;;;;;;;6.22;1.90;;;20.60;99.90;;;;;;4853977;29;20108;-76
2023/09/18 06:04:10;;;;;;;8.10;2.40;;;20.60;99.90;;;;;;4841199;29;20030;-77
2023/09/18 06:06:42;;;;;;;7.80;2.35;;;20.60;99.90;;;;;;4854602;29;20034;-76
2023/09/18 06:09:33;;;;;;;5.18;2.13;;;20.70;99.90;;;;;;4854395;29;20034;-77
2023/09/18 06:12:06;;;;;;;7.30;2.72;;;20.60;99.90;;;;;;4851638;29;20037;-76
2023/09/18 06:14:34;;;;;;;8.65;3.03;;;20.60;99.90;;;;;;4870872;29;20045;-77
2023/09/18 06:17:25;;;;;;;10.15;3.00;;;20.50;99.90;;;;;;4850795;29;20151;-77
2023/09/18 06:23:33;;;;;;;8.65;3.38;;;20.40;99.90;;;;;;4778357;30;20046;-76
2023/09/18 06:26:35;;;;;;;7.43;3.25;;;20.40;99.90;;;;;;4765725;30;20066;-78
2023/09/18 06:30:09;;;;;;;8.25;3.08;;;20.40;99.90;;;;;;4770065;30;20034;-76
2023/09/18 06:32:37;;;;;;;8.10;3.72;;;20.30;99.90;;;;;;4767582;30;20050;-77
2023/09/18 06:35:03;;;;;;;9.32;3.83;;;20.30;99.90;;;;;;4791069;30;20047;-74
2023/09/18 06:37:29;;;;;;;11.82;3.20;;;20.30;99.90;;;;;;4802269;30;20035;-77
2023/09/18 06:39:58;;;;;;;8.60;3.90;;;20.20;99.90;;;;;;4800350;30;20336;-77
2023/09/18 06:42:23;;;;;;;9.73;3.15;;;20.20;99.90;;;;;;4796289;30;20051;-75
2023/09/18 06:44:56;;;;;;;9.80;3.97;;;20.20;99.90;;;;;;4771525;30;20043;-76
2023/09/18 06:47:24;;;;;;;10.05;3.75;;;20.20;99.90;;;;;;4793305;29;20142;-77
2023/09/18 06:50:07;;;;;;;8.13;3.45;;;20.20;99.90;;;;;;4777271;30;20055;-75
2023/09/18 06:52:33;;;;;;;9.80;3.22;;;20.20;99.90;;;;;;4795365;29;20066;-78
2023/09/18 06:55:01;;;;;;;8.65;3.15;;;20.10;99.90;;;;;;4795500;30;20032;-76
2023/09/18 06:57:27;;;;;;;9.23;3.35;;;20.20;99.90;;;;;;4865651;29;20058;-77
2023/09/18 07:00:36;;;;;;;9.07;3.10;;;20.20;99.90;;;;;;4888045;29;20379;-76
2023/09/18 07:03:02;;;;;;;10.70;3.70;;;20.20;99.90;;;;;;4893671;29;20063;-75
2023/09/18 07:05:37;;;;;;;6.07;2.15;;;20.20;99.90;;;;;;4907349;29;20032;-77
2023/09/18 07:08:12;;;;;;;10.00;2.70;;;20.30;99.90;;;;;;4890721;29;20315;-76
2023/09/18 07:13:58;;;;;;;6.57;1.83;;;20.50;99.90;;;;;;4877722;29;20044;-77
2023/09/18 07:16:30;;;;;;;8.07;2.10;;;20.70;99.90;;;;;;4907235;29;20032;-75
2023/09/18 07:18:55;;;;;;;6.00;1.60;;;20.80;99.90;;;;;;4893330;29;20309;-75
2023/09/18 07:25:19;;;;;;;6.18;1.45;;;21.10;99.90;;;;;;4885944;29;20390;-75
2023/09/18 07:27:45;;;;;;;6.82;2.65;;;21.40;99.90;;;;;;4889901;29;20072;-76
2023/09/18 07:30:21;;;;;;;4.82;1.60;;;21.50;99.90;;;;;;4907362;29;20044;-75
2023/09/18 07:33:15;;;;;;;5.55;1.33;;;21.50;99.80;;;;;;4893998;29;20248;-75
2023/09/18 07:35:48;;;;;;;5.63;1.27;;;21.50;98.90;;;;;;4890632;29;20125;-75
2023/09/18 07:38:14;;;;;;;4.90;1.30;;;21.60;99.00;;;;;;4907113;29;20051;-75
2023/09/18 07:40:47;;;;;;;4.68;1.23;;;21.60;98.40;;;;;;4890412;29;20098;-76
2023/09/18 07:43:13;;;;;;;4.90;1.30;;;21.60;97.70;;;;;;4890630;29;20302;-75
2023/09/18 07:45:56;;;;;;;4.32;0.80;;;21.70;97.20;;;;;;4906858;29;20036;-76
2023/09/18 07:48:44;;;;;;;8.18;1.13;;;21.80;97.00;;;;;;4890535;29;20086;-76
2023/09/18 07:51:13;;;;;;;7.93;1.75;;;21.90;96.90;;;;;;4877892;29;20036;-76
2023/09/18 07:53:44;;;;;;;5.10;0.98;;;22.00;97.20;;;;;;4925444;29;20036;-77
2023/09/18 07:56:24;;;;;;;6.07;1.20;;;22.10;95.70;;;;;;4925814;29;20047;-76
2023/09/18 07:59:09;;;;;;;4.78;1.08;;;22.20;95.80;;;;;;4893121;29;20044;-76
2023/09/18 08:01:50;;;;;;;5.50;0.80;;;22.40;95.10;;;;;;4894181;29;20104;-75
2023/09/18 08:04:25;;;;;;;5.18;1.02;;;22.50;94.20;;;;;;4926734;29;20057;-77
2023/09/18 08:07:09;;;;;;;4.35;1.40;;;22.60;94.40;;;;;;4911856;29;20377;-76
2023/09/18 08:09:44;;;;;;;4.43;1.02;;;22.60;93.80;;;;;;4929514;29;20336;-75
2023/09/18 08:12:10;;;;;;;5.15;1.20;;;22.70;94.20;;;;;;4911831;29;20028;-76
2023/09/18 08:14:58;;;;;;;4.38;0.60;;;22.70;93.70;;;;;;4912592;29;20024;-78
2023/09/18 08:18:19;;;;;;;2.70;0.80;;;22.60;93.40;;;;;;4915214;29;20031;-76
2023/09/18 08:21:13;;;;;;;4.13;0.70;;;22.50;92.90;;;;;;4920238;29;20068;-76
2023/09/18 08:23:40;;;;;;;2.90;0.50;;;22.40;93.60;;;;;;4896494;29;20032;-77
2023/09/18 08:26:07;;;;;;;4.05;0.80;;;22.30;93.90;;;;;;4911648;29;20268;-77
2023/09/18 08:28:35;;;;;;;4.03;0.75;;;22.20;93.80;;;;;;4912067;29;20024;-76
2023/09/18 08:31:01;;;;;;;6.45;1.10;;;22.20;93.90;;;;;;4921374;29;20113;-77
2023/09/18 08:33:34;;;;;;;5.15;0.70;;;22.10;94.00;;;;;;4909770;29;20217;-76
2023/09/18 08:36:06;;;;;;;2.72;0.60;;;22.00;93.50;;;;;;4893301;29;20045;-75
2023/09/18 08:38:35;;;;;;;3.47;0.50;;;21.90;94.30;;;;;;4877898;29;20214;-75
2023/09/18 08:41:01;;;;;;;4.10;0.70;;;21.90;94.90;;;;;;4909159;29;20041;-73
2023/09/18 08:43:28;;;;;;;3.17;0.50;;;21.80;95.10;;;;;;4909677;29;20020;-73
2023/09/18 08:46:04;;;;;;;5.68;0.90;;;21.80;95.40;;;;;;4909385;29;20157;-76
2023/09/18 08:48:39;;;;;;;3.65;0.70;;;21.70;95.70;;;;;;4877424;29;20052;-75
2023/09/18 08:51:15;;;;;;;4.40;0.88;;;21.60;95.40;;;;;;4906402;29;20040;-74
2023/09/18 08:53:40;;;;;;;2.95;0.77;;;21.40;95.70;;;;;;4890670;29;20029;-75
2023/09/18 08:56:10;;;;;;;3.05;0.70;;;21.30;96.10;;;;;;4890170;29;20039;-75
2023/09/18 08:58:42;;;;;;;4.60;0.82;;;21.20;96.70;;;;;;4890675;29;20037;-74
2023/09/18 09:01:09;;;;;;;5.05;0.93;;;21.30;97.90;;;;;;4909033;29;20032;-74
2023/09/18 09:03:39;;;;;;;2.50;0.55;;;21.30;98.10;;;;;;4909292;29;20085;-76
2023/09/18 09:06:09;;;;;;;4.30;0.73;;;21.10;98.40;;;;;;4892075;29;20096;-77
2023/09/18 09:08:36;;;;;;;11.80;1.10;;;21.10;98.50;;;;;;4876331;29;20255;-74
2023/09/18 09:11:03;;;;;;;4.60;0.80;;;21.00;98.70;;;;;;4908410;29;20044;-78
2023/09/18 09:13:29;;;;;;;2.47;0.50;;;20.80;99.00;;;;;;4877078;29;20092;-75
2023/09/18 09:15:56;;;;;;;5.28;0.98;;;20.80;99.40;;;;;;4891767;29;20028;-77
2023/09/18 09:18:24;;;;;;;3.38;0.68;;;20.80;98.90;;;;;;4908907;29;20064;-76
2023/09/18 09:21:08;;;;;;;3.43;0.70;;;20.70;98.90;;;;;;4891310;29;20031;-73
2023/09/18 09:23:57;;;;;;;4.85;0.70;;;20.80;99.50;;;;;;4876397;29;20081;-74
2023/09/18 09:26:23;;;;;;;3.05;0.63;;;20.80;99.90;;;;;;4876476;29;20074;-77
2023/09/18 09:28:49;;;;;;;4.72;0.73;;;20.80;99.90;;;;;;4875966;29;20033;-73
2023/09/18 09:31:30;;;;;;;2.33;0.60;;;20.60;99.90;;;;;;4908732;29;20037;-73
2023/09/18 09:33:57;;;;;;;4.35;0.70;;;20.60;99.90;;;;;;4908503;29;20060;-74
2023/09/18 09:36:26;;;;;;;4.97;0.70;;;20.70;99.90;;;;;;4891836;29;20032;-75
2023/09/18 09:38:59;;;;;;;4.53;1.02;;;20.80;99.90;;;;;;4891310;29;20028;-74
2023/09/18 09:41:28;;;;;;;4.32;1.40;;;20.80;99.90;;;;;;4908547;29;20044;-75
2023/09/18 09:43:56;;;;;;;5.97;1.00;;;20.80;99.90;;;;;;4907651;29;20338;-75
2023/09/18 09:46:22;;;;;;;4.53;0.70;;;20.90;99.90;;;;;;4908361;29;20073;-75
2023/09/18 09:49:06;;;;;;;4.80;1.08;;;21.00;99.90;;;;;;4908248;29;20044;-76
2023/09/18 09:51:34;;;;;;;2.42;0.60;;;21.10;99.90;;;;;;4853194;29;20109;-75
2023/09/18 09:54:00;;;;;;;3.90;0.88;;;21.10;99.90;;;;;;4852761;29;20037;-76
2023/09/18 09:56:45;;;;;;;6.70;1.40;;;21.10;99.90;;;;;;4868699;29;20121;-77
2023/09/18 09:59:12;;;;;;;4.60;1.08;;;21.10;99.90;;;;;;4849902;29;20030;-76
2023/09/18 10:01:40;;;;;;;2.53;0.90;;;20.90;99.90;;;;;;4850274;29;20058;-77
2023/09/18 10:04:12;;;;;;;4.53;1.00;;;20.90;99.90;;;;;;4850570;29;20053;-77
2023/09/18 10:06:42;;;;;;;3.55;0.73;;;20.80;99.90;;;;;;4850750;29;20050;-79
2023/09/18 10:09:10;;;;;;;4.03;0.85;;;20.90;99.90;;;;;;4849843;29;20104;-76
2023/09/18 10:11:41;;;;;;;4.72;0.95;;;21.10;99.90;;;;;;4850355;29;20264;-76
2023/09/18 10:14:20;;;;;;;3.65;1.10;;;21.10;99.90;;;;;;4850047;29;20029;-79
2023/09/18 10:16:52;;;;;;;;;;;21.10;99.90;;;;;;4851393;29;20046;-77
2023/09/18 10:19:28;;;;;;;5.40;1.30;;;21.10;99.90;;;;;;4850708;29;19909;-77
2023/09/18 10:22:11;;;;;;;6.43;1.92;;;21.00;99.90;;;;;;4844488;29;20338;-77
2023/09/18 10:24:43;;;;;;;3.08;1.25;;;20.80;99.90;;;;;;4872899;29;20049;-77
2023/09/18 10:27:14;;;;;;;5.10;1.38;;;20.80;99.90;;;;;;4872092;29;20262;-78
2023/09/18 10:29:41;;;;;;;3.88;1.33;;;20.70;99.90;;;;;;4872450;29;20037;-79
2023/09/18 10:32:08;;;;;;;3.38;1.17;;;20.70;99.90;;;;;;4903378;29;20260;-81
2023/09/18 10:34:41;;;;;;;4.70;1.92;;;20.70;99.90;;;;;;4891604;29;20048;-78
2023/09/18 10:37:09;;;;;;;6.22;1.30;;;20.80;99.90;;;;;;4907399;29;20064;-80
2023/09/18 10:39:54;;;;;;;4.90;1.30;;;20.80;99.90;;;;;;4907855;29;20227;-76
2023/09/18 10:42:22;;;;;;;6.90;1.75;;;20.80;99.90;;;;;;4891910;29;20048;-76
2023/09/18 10:44:57;;;;;;;6.22;1.70;;;20.70;99.90;;;;;;4876941;29;20101;-78
2023/09/18 10:47:40;;;;;;;5.85;1.35;;;20.60;99.90;;;;;;4909450;29;20032;-78
2023/09/18 10:50:09;;;;;;;6.53;1.35;;;20.60;99.90;;;;;;4876777;29;20180;-78
2023/09/18 10:52:36;;;;;;;5.80;1.52;;;20.60;99.90;;;;;;4891919;29;20053;-76
2023/09/18 10:55:04;;;;;;;6.13;1.75;;;20.60;99.90;;;;;;4891960;29;20028;-76
2023/09/18 10:57:35;;;;;;;7.35;1.90;;;20.70;99.90;;;;;;4908266;29;20057;-77
2023/09/18 11:00:13;;;;;;;3.63;1.50;;;20.90;99.90;;;;;;4908551;29;20032;-74
2023/09/18 11:02:40;;;;;;;4.18;1.63;;;20.90;99.90;;;;;;4892095;29;20222;-76
2023/09/18 11:05:06;;;;;;;6.20;1.60;;;20.90;99.90;;;;;;4907690;29;20095;-75
2023/09/18 11:07:32;;;;;;;3.75;1.33;;;20.90;99.90;;;;;;4890933;29;20044;-74
2023/09/18 11:10:27;;;;;;;5.45;1.45;;;20.90;99.90;;;;;;4874842;29;20024;-77
2023/09/18 11:12:54;;;;;;;6.28;2.08;;;20.90;99.90;;;;;;4906910;29;20036;-77
2023/09/18 11:15:32;;;;;;;4.57;1.33;;;20.90;99.90;;;;;;4875112;29;20036;-74
2023/09/18 11:18:19;;;;;;;5.18;1.77;;;20.80;99.90;;;;;;4890402;29;20108;-75
2023/09/18 11:21:09;;;;;;;4.40;1.55;;;20.90;99.90;;;;;;4905389;29;20296;-77
2023/09/18 11:23:37;;;;;;;7.00;1.30;;;20.90;99.90;;;;;;4907343;29;20308;-76
2023/09/18 11:26:08;;;;;;;2.60;0.90;;;21.00;99.90;;;;;;4906551;29;20043;-75
2023/09/18 11:28:34;;;;;;;3.25;1.10;;;20.90;99.90;;;;;;4907485;29;20044;-75
2023/09/18 11:31:01;;;;;;;3.08;0.70;;;20.90;99.90;;;;;;4911956;29;20043;-76
2023/09/18 11:33:34;;;;;;;2.88;0.77;;;21.00;99.90;;;;;;4896020;29;20434;-76
2023/09/18 11:36:12;;;;;;;5.50;0.70;;;20.90;99.90;;;;;;4894131;29;20300;-76
2023/09/18 11:38:55;;;;;;;2.25;0.63;;;20.90;99.90;;;;;;4910971;29;20052;-76
2023/09/18 11:41:25;;;;;;;3.60;1.17;;;21.00;99.90;;;;;;4910928;29;20040;-75
2023/09/18 11:43:52;;;;;;;2.25;0.70;;;21.00;99.90;;;;;;4910696;29;20032;-75
2023/09/18 11:46:20;;;;;;;2.97;0.70;;;20.90;99.90;;;;;;4909993;29;20028;-75
2023/09/18 11:48:50;;;;;;;2.57;0.80;;;20.80;99.90;;;;;;4910993;29;20063;-76
2023/09/18 11:51:23;;;;;;;2.70;0.80;;;20.90;99.90;;;;;;4891147;29;20040;-75
2023/09/18 11:53:53;;;;;;;6.13;0.93;;;21.00;99.90;;;;;;4910351;29;20314;-77
2023/09/18 11:56:21;;;;;;;3.30;0.90;;;21.10;99.90;;;;;;4910069;29;20040;-76
2023/09/18 11:58:51;;;;;;;3.72;0.90;;;21.10;99.90;;;;;;4910526;29;20029;-76
2023/09/18 12:01:20;;;;;;;2.63;0.60;;;21.30;99.90;;;;;;4877767;29;20322;-77
2023/09/18 12:03:47;;;;;;;3.22;0.75;;;21.20;99.90;;;;;;4912781;29;20040;-75
2023/09/18 12:06:13;;;;;;;3.67;1.02;;;21.20;99.90;;;;;;4909854;29;20024;-77
2023/09/18 12:08:40;;;;;;;3.53;1.00;;;21.10;99.90;;;;;;4910524;29;20236;-77
2023/09/18 12:11:07;;;;;;;3.45;0.70;;;21.00;99.90;;;;;;4893099;29;20059;-76
2023/09/18 12:13:32;;;;;;;3.33;1.45;;;21.00;99.90;;;;;;4910512;29;20028;-76
2023/09/18 12:16:05;;;;;;;2.90;0.80;;;21.20;99.90;;;;;;4910089;29;20052;-76
2023/09/18 12:18:36;;;;;;;3.13;0.80;;;21.20;99.90;;;;;;4909710;29;20249;-76
2023/09/18 12:21:04;;;;;;;3.67;0.82;;;21.30;99.90;;;;;;4909394;29;20063;-76
2023/09/18 12:23:37;;;;;;;5.88;1.13;;;21.30;99.90;;;;;;4910255;29;20360;-75
2023/09/18 12:26:03;;;;;;;5.35;1.40;;;21.40;99.90;;;;;;4892635;29;20045;-75
2023/09/18 12:28:29;;;;;;;3.92;1.10;;;21.30;99.90;;;;;;4893157;29;20089;-75
2023/09/18 12:30:56;;;;;;;4.75;1.10;;;21.20;99.90;;;;;;4910006;29;20025;-76
2023/09/18 12:33:25;;;;;;;3.95;1.10;;;21.20;99.90;;;;;;4909330;29;20227;-74
2023/09/18 12:35:52;;;;;;;4.72;1.33;;;21.20;99.90;;;;;;4909989;29;20036;-74
2023/09/18 12:38:22;;;;;;;5.18;1.10;;;21.40;99.90;;;;;;4908997;29;20214;-75
2023/09/18 12:40:49;;;;;;;5.10;1.40;;;21.50;99.90;;;;;;4909772;29;20033;-73
2023/09/18 12:43:16;;;;;;;5.25;1.38;;;21.60;99.90;;;;;;4909052;29;20033;-75
2023/09/18 12:45:43;;;;;;;6.15;1.58;;;21.90;99.90;;;;;;4895209;29;20180;-75
2023/09/18 12:48:10;;;;;;;4.10;1.00;;;22.30;99.60;;;;;;4908864;29;20060;-75
2023/09/18 12:50:36;;;;;;;2.97;0.90;;;22.80;98.50;;;;;;4924626;29;20362;-75
2023/09/18 12:53:13;;;;;;;1.85;0.80;;;23.20;97.40;;;;;;4890088;29;20032;-74
2023/09/18 12:55:40;;;;;;;5.05;1.20;;;23.90;95.80;;;;;;4880506;29;20059;-74
2023/09/18 12:58:08;;;;;;;4.90;1.02;;;24.70;94.70;;;;;;4867643;29;20064;-77
2023/09/18 13:00:34;;;;;;;;;;;25.70;92.30;;;;;;4874692;29;20083;-74
2023/09/18 13:03:25;;;;;;;2.63;0.70;;;26.40;91.40;;;;;;4890435;29;19908;-76
2023/09/18 13:10:15;;;;;;;3.95;1.00;;;26.10;90.40;;;;;;4870145;29;20057;-77
2023/09/18 13:12:50;;;;;;;3.38;0.65;;;26.00;90.60;;;;;;4854633;29;20033;-77
2023/09/18 13:15:27;;;;;;;5.43;0.85;;;26.00;88.90;;;;;;4869588;29;20065;-76
2023/09/18 13:18:44;;;;;;;5.67;0.90;;;26.20;89.30;;;;;;4870024;29;20167;-77
2023/09/18 13:21:49;;;;;;;3.03;0.60;;;26.60;87.20;;;;;;4868892;29;20157;-76
2023/09/18 13:25:09;;;;;;;2.55;0.70;;;26.60;86.70;;;;;;4851089;29;20030;-76
2023/09/18 13:28:11;;;;;;;1.48;0.65;;;27.30;83.80;;;;;;4835684;29;20025;-74
2023/09/18 13:30:50;;;;;;;2.90;0.82;;;27.60;82.70;;;;;;4836721;29;20127;-78
2023/09/18 13:33:23;;;;;;;2.97;0.50;;;27.20;83.30;;;;;;4850872;29;20126;-77
2023/09/18 13:36:22;;;;;;;3.97;1.00;;;26.50;83.40;;;;;;4835940;29;20046;-78
2023/09/18 13:42:49;;;;;;;3.03;0.43;;;29.00;77.60;;;;;;4832700;29;20065;-77
2023/09/18 13:46:04;;;;;;;1.70;0.50;;;30.50;73.80;;;;;;4815648;29;20026;-77
2023/09/18 13:48:30;;;;;;;2.63;0.80;;;30.30;70.80;;;;;;4832778;29;20323;-79
2023/09/18 13:51:14;;;;;;;4.63;0.60;;;30.20;70.90;;;;;;4834295;29;20046;-76
2023/09/18 13:53:48;;;;;;;3.53;0.50;;;29.50;72.60;;;;;;4817347;29;20062;-77
2023/09/18 13:57:07;;;;;;;2.20;0.52;;;28.90;72.70;;;;;;4818133;29;20052;-78
2023/09/18 13:59:37;;;;;;;2.33;0.50;;;27.50;75.00;;;;;;4835293;29;20046;-77
2023/09/18 14:02:27;;;;;;;2.40;0.73;;;26.50;78.10;;;;;;4819857;29;20041;-78
2023/09/18 14:05:17;;;;;;;1.73;0.40;;;26.60;78.60;;;;;;4835470;29;20034;-80
2023/09/18 14:07:43;;;;;;;2.40;0.50;;;26.20;78.70;;;;;;4850493;29;20126;-77
2023/09/18 14:10:10;;;;;;;2.92;0.70;;;26.20;79.10;;;;;;4850383;29;20034;-77
2023/09/18 14:13:07;;;;;;;2.47;0.50;;;26.10;79.00;;;;;;4850698;29;20053;-78
2023/09/18 14:16:27;;;;;;;1.85;0.57;;;25.50;81.40;;;;;;4835963;29;20397;-77
2023/09/18 14:18:54;;;;;;;2.42;0.63;;;25.30;81.00;;;;;;4793525;29;20053;-79
2023/09/18 14:21:53;;;;;;;4.20;0.70;;;25.20;81.60;;;;;;4796521;29;20038;-78
2023/09/18 14:24:22;;;;;;;2.58;0.50;;;25.40;80.30;;;;;;4829734;29;20364;-77
2023/09/18 14:26:55;;;;;;;1.42;0.40;;;25.50;80.40;;;;;;4832259;29;20363;-77
2023/09/18 14:29:52;;;;;;;3.13;0.55;;;25.80;80.80;;;;;;4796041;30;20039;-77
2023/09/18 14:33:03;;;;;;;2.10;0.45;;;26.40;79.80;;;;;;4794548;29;20077;-76
2023/09/18 14:35:39;;;;;;;2.10;0.50;;;26.70;77.80;;;;;;4795892;30;20066;-78
2023/09/18 14:38:16;;;;;;;4.00;0.95;;;26.80;77.50;;;;;;4795513;29;20233;-78
2023/09/18 14:40:42;;;;;;;2.42;0.65;;;26.80;77.70;;;;;;4795504;29;20085;-77
2023/09/18 14:43:30;;;;;;;3.10;0.60;;;27.20;77.90;;;;;;4795838;30;20153;-78
2023/09/18 14:46:08;;;;;;;3.17;0.70;;;27.50;75.60;;;;;;4795277;29;20276;-75
2023/09/18 14:48:39;;;;;;;2.70;0.50;;;28.30;73.20;;;;;;4795995;30;20084;-78
2023/09/18 14:51:13;;;;;;;1.85;0.57;;;27.70;74.00;;;;;;4795293;29;20035;-77
2023/09/18 14:53:46;;;;;;;3.03;0.70;;;28.50;72.90;;;;;;4847348;29;20191;-77
2023/09/18 14:57:17;;;;;;;2.38;0.60;;;29.40;70.20;;;;;;4837639;29;20178;-78
2023/09/18 15:00:16;;;;;;;2.67;0.80;;;31.50;66.00;;;;;;4850251;29;20069;-78
2023/09/18 15:02:45;;;;;;;2.60;0.52;;;32.70;63.00;;;;;;4849840;29;20102;-76
2023/09/18 15:05:42;;;;;;;1.65;0.50;;;32.80;62.50;;;;;;4834222;29;20078;-76
2023/09/18 15:08:08;;;;;;;;;;;33.70;60.60;;;;;;4872614;29;20026;-78
2023/09/18 15:10:57;;;;;;;1.30;0.35;;;33.00;60.50;;;;;;4857606;29;19916;-77
2023/09/18 15:13:26;;;;;;;2.10;0.63;;;31.70;63.00;;;;;;4871041;29;20045;-77
2023/09/18 15:15:54;;;;;;;4.00;0.52;;;30.40;65.90;;;;;;4857849;29;20026;-76
2023/09/18 15:18:26;;;;;;;3.20;0.73;;;29.70;66.40;;;;;;4873230;29;20045;-75
2023/09/18 15:24:51;;;;;;;2.35;0.70;;;27.80;71.10;;;;;;4873782;29;20033;-78
2023/09/18 15:27:23;;;;;;;3.22;0.90;;;28.10;71.30;;;;;;4856893;29;20207;-79
2023/09/18 15:33:21;;;;;;;1.52;0.40;;;28.30;69.90;;;;;;4816963;29;20072;-77
2023/09/18 15:35:49;;;;;;;2.17;0.50;;;27.90;71.50;;;;;;4839131;29;20037;-76
2023/09/18 15:38:36;;;;;;;1.80;0.70;;;29.20;69.80;;;;;;4854752;29;20142;-76
2023/09/18 15:41:27;;;;;;;1.80;0.50;;;30.70;67.80;;;;;;4839541;29;20366;-78
2023/09/18 15:43:53;;;;;;;2.47;0.60;;;31.70;64.00;;;;;;4860351;29;20021;-77
2023/09/18 15:46:19;;;;;;;2.40;0.63;;;32.40;62.70;;;;;;4841526;29;20067;-78
2023/09/18 15:48:45;;;;;;;1.80;0.57;;;33.00;61.90;;;;;;4873365;29;20304;-77
2023/09/18 15:51:47;;;;;;;1.33;0.45;;;34.50;59.80;;;;;;4841791;29;20037;-77
2023/09/18 15:54:14;;;;;;;3.25;0.52;;;35.10;58.00;;;;;;4850822;29;20065;-76
2023/09/18 15:57:00;;;;;;;1.40;0.45;;;35.70;56.50;;;;;;4859109;29;20048;-77
2023/09/18 16:03:27;;;;;;;1.05;0.30;;;34.20;57.70;;;;;;4875099;29;20068;-78
2023/09/18 16:06:20;;;;;;;2.25;0.60;;;34.40;56.50;;;;;;4852563;29;20040;-76
2023/09/18 16:09:17;;;;;;;2.33;0.50;;;33.60;58.70;;;;;;4842506;29;20049;-76
2023/09/18 16:14:57;;;;;;;1.80;0.80;;;30.20;64.00;;;;;;5040479;23;20133;-79
2023/09/18 16:20:38;;;;;;;2.15;0.60;;;29.40;66.00;;;;;;5373165;23;20052;-79
2023/09/18 16:23:32;;;;;;;5.53;0.70;;;27.80;69.30;;;;;;4915974;29;20280;-82
2023/09/18 16:26:08;;;;;;;2.22;0.50;;;26.40;72.70;;;;;;4928940;29;20026;-80
2023/09/18 16:28:37;;;;;;;3.28;0.63;;;25.80;75.20;;;;;;4929034;29;20036;-76
2023/09/18 16:31:11;;;;;;;2.53;0.65;;;25.30;75.80;;;;;;4908305;29;20115;-79
2023/09/18 16:33:36;;;;;;;2.92;0.68;;;24.70;78.10;;;;;;4893124;29;20033;-78
2023/09/18 16:36:23;;;;;;;;;;;24.50;78.90;;;;;;4894227;29;20028;-79
2023/09/18 16:38:50;;;;;;;3.20;0.90;;;24.40;79.50;;;;;;4893772;29;19907;-80
2023/09/18 16:41:40;;;;;;;3.00;0.90;;;24.20;80.00;;;;;;4907754;29;20044;-78
2023/09/18 16:44:05;;;;;;;1.75;0.60;;;24.10;80.80;;;;;;4907859;29;20096;-79
2023/09/18 16:46:32;;;;;;;3.30;1.02;;;24.00;80.60;;;;;;4891906;29;20049;-78
2023/09/18 16:49:01;;;;;;;2.53;0.85;;;23.90;82.00;;;;;;4877179;29;20308;-78
2023/09/18 16:51:27;;;;;;;3.30;0.98;;;23.80;82.40;;;;;;4876245;29;20048;-77
2023/09/18 16:53:53;;;;;;;2.83;0.65;;;23.70;82.20;;;;;;4876478;29;20086;-78
2023/09/18 16:56:19;;;;;;;2.28;0.70;;;23.60;83.30;;;;;;4886630;29;20269;-78
2023/09/18 16:58:46;;;;;;;2.08;0.77;;;23.50;83.60;;;;;;4891977;29;20036;-78
2023/09/18 17:01:24;;;;;;;1.88;0.77;;;23.30;83.70;;;;;;4907687;29;20103;-77
2023/09/18 17:04:29;;;;;;;1.92;0.50;;;23.20;83.80;;;;;;4897268;29;20350;-78
2023/09/18 17:06:58;;;;;;;2.15;0.80;;;23.00;84.30;;;;;;4891809;29;20084;-78
2023/09/18 17:09:52;;;;;;;2.65;0.60;;;22.90;85.50;;;;;;4895286;29;20031;-77
2023/09/18 17:12:27;;;;;;;2.15;0.80;;;22.70;85.50;;;;;;4908316;29;20060;-78
2023/09/18 17:14:56;;;;;;;2.55;1.00;;;22.60;85.80;;;;;;4895121;29;20036;-78
2023/09/18 17:17:23;;;;;;;3.38;0.57;;;22.50;86.00;;;;;;4927805;29;20048;-78
2023/09/18 17:19:58;;;;;;;1.92;0.60;;;22.40;86.30;;;;;;4927444;29;20044;-78
2023/09/18 17:22:23;;;;;;;2.53;0.77;;;22.20;86.50;;;;;;4910718;29;20040;-78
2023/09/18 17:24:49;;;;;;;3.15;0.82;;;22.20;87.10;;;;;;4927977;29;20035;-77
2023/09/18 17:27:15;;;;;;;1.92;0.80;;;22.10;87.70;;;;;;4895156;29;20012;-77
2023/09/18 17:29:44;;;;;;;2.40;0.75;;;22.10;87.60;;;;;;4926793;29;20036;-79
2023/09/18 17:32:12;;;;;;;2.58;0.82;;;22.10;88.00;;;;;;4927711;29;20044;-78
2023/09/18 17:34:50;;;;;;;3.05;0.90;;;22.00;88.40;;;;;;4910611;29;20034;-77
2023/09/18 17:37:17;;;;;;;2.60;0.77;;;22.00;88.30;;;;;;4909677;29;20067;-77
2023/09/18 17:39:55;;;;;;;2.20;0.80;;;21.90;88.70;;;;;;4895273;29;20035;-77
2023/09/18 17:42:33;;;;;;;3.08;1.00;;;21.90;89.10;;;;;;4910764;29;20083;-77
2023/09/18 17:45:03;;;;;;;2.50;1.00;;;21.80;89.80;;;;;;4895421;29;20062;-78
2023/09/18 17:47:38;;;;;;;2.90;1.02;;;21.70;90.10;;;;;;4894723;29;20239;-77
2023/09/18 17:50:12;;;;;;;3.03;1.10;;;21.60;90.20;;;;;;4910987;29;20047;-78
2023/09/18 17:52:49;;;;;;;3.90;0.98;;;21.50;90.30;;;;;;4910018;29;20028;-81
2023/09/18 17:55:16;;;;;;;4.03;0.90;;;21.50;90.40;;;;;;4927302;29;20036;-78
2023/09/18 17:58:01;;;;;;;2.33;0.75;;;21.40;90.50;;;;;;4927231;29;20329;-78
2023/09/18 18:00:29;;;;;;;3.28;1.23;;;21.30;90.60;;;;;;4927044;29;20166;-77
2023/09/18 18:03:01;;;;;;;2.55;1.00;;;21.30;90.80;;;;;;4894959;29;20050;-80
2023/09/18 18:05:28;;;;;;;2.95;1.15;;;21.20;91.00;;;;;;4910078;29;20306;-78
2023/09/18 18:07:57;;;;;;;3.55;1.10;;;21.20;91.10;;;;;;4895463;29;20298;-80
2023/09/18 18:10:25;;;;;;;4.10;1.80;;;21.10;91.30;;;;;;4910067;29;20044;-77
2023/09/18 18:13:03;;;;;;;2.95;0.90;;;21.10;91.50;;;;;;4909908;29;20036;-78
2023/09/18 18:15:38;;;;;;;4.05;1.60;;;21.10;91.60;;;;;;4895120;29;20040;-78
2023/09/18 18:18:04;;;;;;;5.30;1.65;;;21.20;91.50;;;;;;4910149;29;20077;-76
2023/09/18 18:20:45;;;;;;;4.68;1.80;;;21.20;91.50;;;;;;4909201;29;20075;-78
2023/09/18 18:23:16;;;;;;;4.00;1.50;;;21.20;91.50;;;;;;4853402;29;20041;-78
2023/09/18 18:25:48;;;;;;;5.13;2.00;;;21.20;91.70;;;;;;4868909;29;20359;-79
2023/09/18 18:28:13;;;;;;;4.53;1.65;;;21.00;91.80;;;;;;4859701;29;20323;-80
2023/09/18 18:30:39;;;;;;;3.17;1.30;;;20.90;92.10;;;;;;4867595;29;20126;-79
2023/09/18 18:33:11;;;;;;;3.78;1.45;;;20.80;92.10;;;;;;4853601;29;20058;-79
2023/09/18 18:35:38;;;;;;;3.20;1.27;;;20.80;92.10;;;;;;4852921;29;20248;-81
2023/09/18 18:38:05;;;;;;;2.63;1.13;;;20.90;92.00;;;;;;4853579;29;20327;-79
2023/09/18 18:40:33;;;;;;;3.67;1.27;;;20.90;91.90;;;;;;4868185;29;20144;-79
2023/09/18 18:43:03;;;;;;;;;;;20.90;92.00;;;;;;4869283;29;20076;-78
2023/09/18 18:45:31;;;;;;;2.80;1.02;;;20.90;92.10;;;;;;4852914;29;19904;-78
2023/09/18 18:48:00;;;;;;;3.75;1.30;;;20.80;92.20;;;;;;4868253;29;20066;-79
2023/09/18 18:50:38;;;;;;;3.15;1.15;;;20.80;92.30;;;;;;4868378;29;20037;-80
2023/09/18 18:53:04;;;;;;;;;;;20.80;92.20;;;;;;4855844;29;20049;-80
2023/09/18 18:55:40;;;;;;;3.63;1.10;;;20.80;92.20;;;;;;4925828;29;19946;-81
2023/09/18 18:58:34;;;;;;;2.28;0.90;;;20.90;92.10;;;;;;4926269;29;20047;-80
2023/09/18 19:01:12;;;;;;;2.58;1.02;;;20.90;92.00;;;;;;4907490;29;20044;-80
2023/09/18 19:03:46;;;;;;;3.47;1.05;;;20.90;92.10;;;;;;4926600;29;20024;-79
2023/09/18 19:06:24;;;;;;;3.78;1.00;;;20.90;92.10;;;;;;4894206;29;20036;-81
2023/09/18 19:09:13;;;;;;;3.00;1.10;;;20.90;92.10;;;;;;4910024;29;20036;-81
2023/09/18 19:11:47;;;;;;;4.00;1.25;;;20.80;92.20;;;;;;4886279;29;20228;-78
2023/09/18 19:14:27;;;;;;;2.50;0.90;;;20.80;92.20;;;;;;4921164;29;20036;-78
2023/09/18 19:16:56;;;;;;;5.57;0.90;;;20.90;92.20;;;;;;4909853;29;20040;-81
2023/09/18 19:19:31;;;;;;;2.80;0.90;;;20.80;92.10;;;;;;4909001;29;20042;-76
2023/09/18 19:22:06;;;;;;;2.73;1.00;;;20.80;91.80;;;;;;4926453;29;20063;-79
2023/09/18 19:24:37;;;;;;;2.20;0.98;;;20.80;92.40;;;;;;4923480;29;20044;-78
2023/09/18 19:27:38;;;;;;;4.68;0.88;;;20.80;93.20;;;;;;4910798;29;20099;-78
2023/09/18 19:30:10;;;;;;;3.58;1.00;;;20.70;93.10;;;;;;4909297;29;20048;-78
2023/09/18 19:32:42;;;;;;;3.70;0.73;;;20.60;93.70;;;;;;4874893;29;20381;-78